createdAt,value
2023-04-07T00:00:04.980Z,4.43
2023-04-07T00:03:09.039Z,4.44
2023-04-07T00:06:12.631Z,4.46
2023-04-07T00:09:16.231Z,4.53
2023-04-07T00:12:19.684Z,4.47
2023-04-07T00:15:24.620Z,4.43
2023-04-07T00:18:28.125Z,4.39
2023-04-07T00:21:31.603Z,4.38
2023-04-07T00:24:35.088Z,4.35
2023-04-07T00:27:38.713Z,4.28
2023-04-07T00:30:43.585Z,4.26
2023-04-07T00:33:48.506Z,4.20
2023-04-07T00:36:52.567Z,4.10
2023-04-07T00:39:57.237Z,3.98
2023-04-07T00:43:00.786Z,3.98
2023-04-07T00:46:05.958Z,3.99
2023-04-07T00:49:11.436Z,3.95
2023-04-07T00:52:17.132Z,3.95
2023-04-07T00:55:20.791Z,3.93
2023-04-07T00:58:24.226Z,3.90
2023-04-07T01:01:41.029Z,3.92
2023-04-07T01:04:52.650Z,3.92
2023-04-07T01:08:14.904Z,3.85
2023-04-07T01:11:26.053Z,3.81
2023-04-07T01:14:38.606Z,3.86
2023-04-07T01:17:49.565Z,3.80
2023-04-07T01:21:01.947Z,3.82
2023-04-07T01:24:43.639Z,3.79
2023-04-07T01:28:11.835Z,3.75
2023-04-07T01:31:18.481Z,3.77
2023-04-07T01:34:26.287Z,3.77
2023-04-07T01:37:30.937Z,3.80
2023-04-07T01:40:36.952Z,3.78
2023-04-07T01:43:43.903Z,3.74
2023-04-07T01:46:51.710Z,3.72
2023-04-07T01:49:57.638Z,3.69
2023-04-07T01:53:01.743Z,3.70
2023-04-07T01:56:06.360Z,3.67
2023-04-07T01:59:09.811Z,3.64
2023-04-07T02:02:14.937Z,3.58
2023-04-07T02:05:23.864Z,3.51
2023-04-07T02:08:31.161Z,3.46
2023-04-07T02:11:38.713Z,3.40
2023-04-07T02:14:43.156Z,3.39
2023-04-07T02:17:53.115Z,3.33
2023-04-07T02:20:58.461Z,3.22
2023-04-07T02:24:03.174Z,3.24
2023-04-07T02:27:06.621Z,3.19
2023-04-07T02:30:11.640Z,3.15
2023-04-07T02:33:16.652Z,3.10
2023-04-07T02:36:20.402Z,3.05
2023-04-07T02:39:23.889Z,3.05
2023-04-07T02:42:27.357Z,3.04
2023-04-07T02:45:31.028Z,3.01
2023-04-07T02:48:35.905Z,3.01
2023-04-07T02:51:39.395Z,3.00
2023-04-07T02:54:42.859Z,2.96
2023-04-07T02:57:46.521Z,2.95
2023-04-07T03:00:50.929Z,2.97
2023-04-07T03:03:56.281Z,2.89
2023-04-07T03:07:00.046Z,2.88
2023-04-07T03:10:03.641Z,2.83
2023-04-07T03:13:08.382Z,2.85
2023-04-07T03:16:13.048Z,2.86
2023-04-07T03:19:17.958Z,2.80
2023-04-07T03:22:21.589Z,2.80
2023-04-07T03:25:25.053Z,2.76
2023-04-07T03:28:28.504Z,2.68
2023-04-07T03:31:32.066Z,2.69
2023-04-07T03:34:36.956Z,2.64
2023-04-07T03:37:40.481Z,2.62
2023-04-07T03:40:43.935Z,2.56
2023-04-07T03:43:47.394Z,2.54
2023-04-07T03:46:51.273Z,2.50
2023-04-07T03:49:56.236Z,2.50
2023-04-07T03:52:59.676Z,2.44
2023-04-07T03:56:03.378Z,2.53
2023-04-07T03:59:07.522Z,2.40
2023-04-07T04:02:11.170Z,2.42
2023-04-07T04:05:16.332Z,2.32
2023-04-07T04:08:19.914Z,2.31
2023-04-07T04:11:23.638Z,2.26
2023-04-07T04:14:27.156Z,2.23
2023-04-07T04:17:31.026Z,2.20
2023-04-07T04:20:37.410Z,2.19
2023-04-07T04:23:40.988Z,2.16
2023-04-07T04:26:44.485Z,2.14
2023-04-07T04:29:48.905Z,2.12
2023-04-07T04:32:52.575Z,2.09
2023-04-07T04:35:57.550Z,2.12
2023-04-07T04:39:00.979Z,2.08
2023-04-07T04:42:04.935Z,2.09
2023-04-07T04:45:10.188Z,2.05
2023-04-07T04:48:13.692Z,2.04
2023-04-07T04:51:18.562Z,2.05
2023-04-07T04:54:22.113Z,2.05
2023-04-07T04:57:25.659Z,2.03
2023-04-07T05:00:29.351Z,2.07
2023-04-07T05:03:33.128Z,2.08
2023-04-07T05:06:38.161Z,2.09
2023-04-07T05:09:41.691Z,2.11
2023-04-07T05:12:45.557Z,2.14
2023-04-07T05:15:49.402Z,2.23
2023-04-07T05:18:52.964Z,2.18
2023-04-07T05:21:57.948Z,2.20
2023-04-07T05:25:01.616Z,2.23
2023-04-07T05:28:05.561Z,2.32
2023-04-07T05:31:09.182Z,2.33
2023-04-07T05:34:13.114Z,2.42
2023-04-07T05:37:17.944Z,2.48
2023-04-07T05:40:21.742Z,2.59
2023-04-07T05:43:25.308Z,2.66
2023-04-07T05:46:30.275Z,2.72
2023-04-07T05:49:33.755Z,2.81
2023-04-07T05:52:38.622Z,2.87
2023-04-07T05:55:44.777Z,3.02
2023-04-07T05:58:48.356Z,3.00
2023-04-07T06:01:52.023Z,3.13
2023-04-07T06:04:56.247Z,3.39
2023-04-07T06:08:01.216Z,3.49
2023-04-07T06:11:05.383Z,3.62
2023-04-07T06:14:09.190Z,3.75
2023-04-07T06:17:12.878Z,3.86
2023-04-07T06:20:16.559Z,4.10
2023-04-07T06:23:21.691Z,4.11
2023-04-07T06:26:25.350Z,4.26
2023-04-07T06:29:28.991Z,4.40
2023-04-07T06:32:33.472Z,4.39
2023-04-07T06:35:37.265Z,4.37
2023-04-07T06:38:43.827Z,4.72
2023-04-07T06:41:47.460Z,4.91
2023-04-07T06:44:50.994Z,5.11
2023-04-07T06:47:54.722Z,5.12
2023-04-07T06:50:58.392Z,4.78
2023-04-07T06:54:04.504Z,4.97
2023-04-07T06:57:12.052Z,5.37
2023-04-07T07:00:16.615Z,5.61
2023-04-07T07:03:20.792Z,5.61
2023-04-07T07:06:25.378Z,6.06
2023-04-07T07:09:31.619Z,6.34
2023-04-07T07:12:35.158Z,6.34
2023-04-07T07:15:38.743Z,6.41
2023-04-07T07:18:42.252Z,6.55
2023-04-07T07:21:46.084Z,6.68
2023-04-07T07:24:51.448Z,6.78
2023-04-07T07:27:55.000Z,7.24
2023-04-07T07:30:58.534Z,7.37
2023-04-07T07:34:02.174Z,7.45
2023-04-07T07:37:05.672Z,7.30
2023-04-07T07:40:11.495Z,7.35
2023-04-07T07:43:18.089Z,7.30
2023-04-07T07:46:22.317Z,7.58
2023-04-07T07:49:26.126Z,7.96
2023-04-07T07:52:29.642Z,8.12
2023-04-07T07:55:34.740Z,8.44
2023-04-07T07:58:38.483Z,8.47
2023-04-07T08:01:42.062Z,8.93
2023-04-07T08:04:46.013Z,9.05
2023-04-07T08:07:50.438Z,9.36
2023-04-07T08:10:56.003Z,9.27
2023-04-07T08:13:59.555Z,9.36
2023-04-07T08:17:03.248Z,9.20
2023-04-07T08:20:10.427Z,9.40
2023-04-07T08:23:14.106Z,9.58
2023-04-07T08:26:19.195Z,9.46
2023-04-07T08:29:22.690Z,9.23
2023-04-07T08:32:26.340Z,9.48
2023-04-07T08:35:29.982Z,9.46
2023-04-07T08:38:33.524Z,9.82
2023-04-07T08:41:40.977Z,10.21
2023-04-07T08:44:47.058Z,9.94
2023-04-07T08:47:56.834Z,10.01
2023-04-07T08:51:05.835Z,9.94
2023-04-07T08:54:13.392Z,9.99
2023-04-07T08:57:19.581Z,10.23
2023-04-07T09:00:23.315Z,10.60
2023-04-07T09:03:28.876Z,10.72
2023-04-07T09:06:33.241Z,10.87
2023-04-07T09:09:36.883Z,10.97
2023-04-07T09:12:42.073Z,10.50
2023-04-07T09:15:46.155Z,10.36
2023-04-07T09:18:49.796Z,10.45
2023-04-07T09:21:54.533Z,10.76
2023-04-07T09:25:13.042Z,10.62
2023-04-07T09:28:17.968Z,10.47
2023-04-07T09:31:22.360Z,10.41
2023-04-07T09:34:28.838Z,10.61
2023-04-07T09:37:32.569Z,11.10
2023-04-07T09:40:37.417Z,11.07
2023-04-07T09:43:46.101Z,11.09
2023-04-07T09:46:52.750Z,11.20
2023-04-07T09:49:59.452Z,11.45
2023-04-07T09:53:04.745Z,10.85
2023-04-07T09:56:10.002Z,10.99
2023-04-07T09:59:18.434Z,10.85
2023-04-07T10:02:23.303Z,10.38
2023-04-07T10:05:28.024Z,10.69
2023-04-07T10:08:35.180Z,10.98
2023-04-07T10:11:39.249Z,11.03
2023-04-07T10:14:47.205Z,11.24
2023-04-07T10:17:52.270Z,11.74
2023-04-07T10:20:57.953Z,11.51
2023-04-07T10:24:20.194Z,11.33
2023-04-07T10:27:35.253Z,11.38
2023-04-07T10:30:42.098Z,11.34
2023-04-07T10:33:52.368Z,10.74
2023-04-07T10:37:14.427Z,11.22
2023-04-07T10:40:31.401Z,11.39
2023-04-07T10:43:45.024Z,11.36
2023-04-07T10:47:07.751Z,11.10
2023-04-07T10:50:22.859Z,11.22
2023-04-07T10:53:26.366Z,11.42
2023-04-07T10:57:21.312Z,11.21
2023-04-07T11:00:25.514Z,11.61
2023-04-07T11:03:32.596Z,12.14
2023-04-07T11:06:36.286Z,11.96
2023-04-07T11:09:39.918Z,11.84
2023-04-07T11:12:43.857Z,12.05
2023-04-07T11:15:52.259Z,11.41
2023-04-07T11:18:59.138Z,11.63
2023-04-07T11:25:27.779Z,11.93
2023-04-07T11:28:32.538Z,11.86
2023-04-07T11:31:36.416Z,11.93
2023-04-07T11:34:41.777Z,12.01
2023-04-07T11:37:45.736Z,11.80
2023-04-07T11:40:49.644Z,12.01
2023-04-07T11:44:07.471Z,12.37
2023-04-07T11:47:10.971Z,12.19
2023-04-07T11:50:16.122Z,12.14
2023-04-07T11:53:30.576Z,12.52
2023-04-07T11:56:46.138Z,12.11
2023-04-07T11:59:49.847Z,12.27
2023-04-07T12:02:53.720Z,12.11
2023-04-07T12:05:58.786Z,12.43
2023-04-07T12:09:03.654Z,12.57
2023-04-07T12:12:10.539Z,12.30
2023-04-07T12:15:14.339Z,12.26
2023-04-07T12:18:19.189Z,12.32
2023-04-07T12:21:24.481Z,12.33
2023-04-07T12:24:28.661Z,12.27
2023-04-07T12:27:42.777Z,12.22
2023-04-07T12:30:47.441Z,12.48
2023-04-07T12:33:51.533Z,12.45
2023-04-07T12:36:56.561Z,12.60
2023-04-07T12:40:00.719Z,12.63
2023-04-07T12:43:04.330Z,12.58
2023-04-07T12:46:07.961Z,12.42
2023-04-07T12:49:11.688Z,12.34
2023-04-07T12:52:16.940Z,12.59
2023-04-07T12:55:20.632Z,12.65
2023-04-07T12:58:24.593Z,12.48
2023-04-07T13:01:28.358Z,12.22
2023-04-07T13:04:32.327Z,12.45
2023-04-07T13:07:37.991Z,12.63
2023-04-07T13:10:41.561Z,12.50
2023-04-07T13:13:45.494Z,12.45
2023-04-07T13:16:49.631Z,12.37
2023-04-07T13:19:53.230Z,12.48
2023-04-07T13:23:07.865Z,12.52
2023-04-07T13:26:13.101Z,12.42
2023-04-07T13:29:17.534Z,12.90
2023-04-07T13:32:21.145Z,12.92
2023-04-07T13:35:26.031Z,12.93
2023-04-07T13:38:31.009Z,12.59
2023-04-07T13:41:34.720Z,12.71
2023-04-07T13:44:39.673Z,12.64
2023-04-07T13:47:43.317Z,12.70
2023-04-07T13:50:46.990Z,12.71
2023-04-07T13:53:52.027Z,12.76
2023-04-07T13:56:55.682Z,12.76
2023-04-07T13:59:59.275Z,12.57
2023-04-07T14:03:04.399Z,12.78
2023-04-07T14:06:08.138Z,12.53
2023-04-07T14:09:12.935Z,12.75
2023-04-07T14:12:17.224Z,12.73
2023-04-07T14:15:20.703Z,12.58
2023-04-07T14:18:25.138Z,12.90
2023-04-07T14:21:28.696Z,12.58
2023-04-07T14:24:33.773Z,12.89
2023-04-07T14:27:37.281Z,12.72
2023-04-07T14:30:40.817Z,12.70
2023-04-07T14:33:44.619Z,12.81
2023-04-07T14:36:55.742Z,12.51
2023-04-07T14:40:03.089Z,13.12
2023-04-07T14:43:07.920Z,12.97
2023-04-07T14:46:12.546Z,12.84
2023-04-07T14:49:16.448Z,12.78
2023-04-07T14:52:20.654Z,12.94
2023-04-07T14:55:26.232Z,12.56
2023-04-07T14:58:29.791Z,12.63
2023-04-07T15:01:33.534Z,12.73
2023-04-07T15:04:37.246Z,12.57
2023-04-07T15:07:40.832Z,12.55
2023-04-07T15:10:46.032Z,12.45
2023-04-07T15:13:50.274Z,12.20
2023-04-07T15:16:54.205Z,12.22
2023-04-07T15:19:57.825Z,12.28
2023-04-07T15:23:01.716Z,12.61
2023-04-07T15:26:07.157Z,12.42
2023-04-07T15:29:11.772Z,12.52
2023-04-07T15:32:15.401Z,12.53
2023-04-07T15:35:20.237Z,12.27
2023-04-07T15:38:23.787Z,12.20
2023-04-07T15:41:28.759Z,12.21
2023-04-07T15:44:39.418Z,12.00
2023-04-07T15:47:44.164Z,12.07
2023-04-07T15:50:48.029Z,12.14
2023-04-07T15:53:51.840Z,12.11
2023-04-07T15:56:56.737Z,12.31
2023-04-07T16:00:00.305Z,12.22
2023-04-07T16:03:04.158Z,11.89
2023-04-07T16:06:07.843Z,12.28
2023-04-07T16:09:11.530Z,12.39
2023-04-07T16:12:16.646Z,12.47
2023-04-07T16:15:41.073Z,12.40
2023-04-07T16:18:45.188Z,12.31
2023-04-07T16:21:48.658Z,12.30
2023-04-07T16:24:52.213Z,12.06
2023-04-07T16:27:58.329Z,12.17
2023-04-07T16:31:02.588Z,12.14
2023-04-07T16:34:06.216Z,12.02
2023-04-07T16:37:09.689Z,12.04
2023-04-07T16:40:14.507Z,11.96
2023-04-07T16:43:19.734Z,11.83
2023-04-07T16:46:25.969Z,11.77
2023-04-07T16:49:29.863Z,11.62
2023-04-07T16:52:33.923Z,11.53
2023-04-07T16:55:37.717Z,11.55
2023-04-07T16:58:42.720Z,11.47
2023-04-07T17:01:46.247Z,11.34
2023-04-07T17:04:49.972Z,11.27
2023-04-07T17:07:54.344Z,11.19
2023-04-07T17:10:59.247Z,11.23
2023-04-07T17:14:04.197Z,11.14
2023-04-07T17:17:07.792Z,11.13
2023-04-07T17:20:13.391Z,10.94
2023-04-07T17:23:17.630Z,10.93
2023-04-07T17:26:21.279Z,10.80
2023-04-07T17:29:29.230Z,10.78
2023-04-07T17:32:32.842Z,10.73
2023-04-07T17:35:36.909Z,10.57
2023-04-07T17:38:40.461Z,10.47
2023-04-07T17:41:43.968Z,10.51
2023-04-07T17:44:52.761Z,10.30
2023-04-07T17:47:56.397Z,10.22
2023-04-07T17:51:00.123Z,9.85
2023-04-07T17:54:03.767Z,9.72
2023-04-07T17:57:08.363Z,9.63
2023-04-07T18:00:14.297Z,9.43
2023-04-07T18:03:19.246Z,9.37
2023-04-07T18:06:22.905Z,9.32
2023-04-07T18:09:26.800Z,9.13
2023-04-07T18:12:31.956Z,9.09
2023-04-07T18:15:37.213Z,8.77
2023-04-07T18:18:40.824Z,8.73
2023-04-07T18:21:44.452Z,8.67
2023-04-07T18:24:48.499Z,8.55
2023-04-07T18:27:52.328Z,8.50
2023-04-07T18:31:06.199Z,8.33
2023-04-07T18:34:10.891Z,8.22
2023-04-07T18:37:14.988Z,8.17
2023-04-07T18:40:18.995Z,8.16
2023-04-07T18:43:22.721Z,8.28
2023-04-07T18:46:28.413Z,8.05
2023-04-07T18:49:32.146Z,8.05
2023-04-07T18:52:35.852Z,7.88
2023-04-07T18:55:39.769Z,8.01
2023-04-07T18:58:46.094Z,7.79
2023-04-07T19:01:52.221Z,7.72
2023-04-07T19:04:56.177Z,7.61
2023-04-07T19:08:00.402Z,7.62
2023-04-07T19:11:05.294Z,7.54
2023-04-07T19:14:08.812Z,7.54
2023-04-07T19:17:13.792Z,7.45
2023-04-07T19:20:17.380Z,7.39
2023-04-07T19:23:21.275Z,7.29
2023-04-07T19:26:25.017Z,7.27
2023-04-07T19:29:28.560Z,7.19
2023-04-07T19:32:33.963Z,7.18
2023-04-07T19:35:39.145Z,7.00
2023-04-07T19:38:42.732Z,6.87
2023-04-07T19:41:46.464Z,6.79
2023-04-07T19:44:50.380Z,6.73
2023-04-07T19:47:58.140Z,6.70
2023-04-07T19:51:01.867Z,6.54
2023-04-07T19:54:05.403Z,6.51
2023-04-07T19:57:08.992Z,6.36
2023-04-07T20:00:13.950Z,6.44
2023-04-07T20:03:19.705Z,6.28
2023-04-07T20:06:27.584Z,6.24
2023-04-07T20:09:31.075Z,6.11
2023-04-07T20:12:34.601Z,6.05
2023-04-07T20:15:38.130Z,6.01
2023-04-07T20:18:42.992Z,5.92
2023-04-07T20:21:46.677Z,5.77
2023-04-07T20:24:50.472Z,5.74
2023-04-07T20:27:53.981Z,5.77
2023-04-07T20:30:57.465Z,5.70
2023-04-07T20:34:03.506Z,5.65
2023-04-07T20:37:07.273Z,5.66
2023-04-07T20:40:12.900Z,5.58
2023-04-07T20:43:18.244Z,5.55
2023-04-07T20:46:22.141Z,5.51
2023-04-07T20:49:27.082Z,5.41
2023-04-07T20:52:30.644Z,5.33
2023-04-07T20:55:35.669Z,5.31
2023-04-07T20:58:39.248Z,5.22
2023-04-07T21:01:42.781Z,5.26
2023-04-07T21:04:48.006Z,5.22
2023-04-07T21:07:51.448Z,5.27
2023-04-07T21:10:55.875Z,5.29
2023-04-07T21:13:59.364Z,5.11
2023-04-07T21:17:03.048Z,5.15
2023-04-07T21:20:10.157Z,5.20
2023-04-07T21:23:13.734Z,5.14
2023-04-07T21:26:17.360Z,5.09
2023-04-07T21:29:22.805Z,5.13
2023-04-07T21:32:26.700Z,5.10
2023-04-07T21:35:31.729Z,5.07
2023-04-07T21:38:35.263Z,5.06
2023-04-07T21:41:38.883Z,5.13
2023-04-07T21:44:42.698Z,5.17
2023-04-07T21:47:46.610Z,5.16
2023-04-07T21:50:52.628Z,5.22
2023-04-07T21:53:56.361Z,5.22
2023-04-07T21:57:01.072Z,5.20
2023-04-07T22:00:05.247Z,5.30
2023-04-07T22:03:08.870Z,5.37
2023-04-07T22:06:14.236Z,5.41
2023-04-07T22:09:17.966Z,5.44
2023-04-07T22:12:21.474Z,5.44
2023-04-07T22:15:25.006Z,5.49
2023-04-07T22:18:28.528Z,5.52
2023-04-07T22:21:33.494Z,5.47
2023-04-07T22:24:36.971Z,5.45
2023-04-07T22:27:40.746Z,5.49
2023-04-07T22:30:44.331Z,5.47
2023-04-07T22:33:48.087Z,5.51
2023-04-07T22:36:52.907Z,5.50
2023-04-07T22:39:56.412Z,5.57
2023-04-07T22:42:59.917Z,5.57
2023-04-07T22:46:03.606Z,5.56
2023-04-07T22:49:07.488Z,5.52
2023-04-07T22:52:12.397Z,5.59
2023-04-07T22:55:16.421Z,5.55
2023-04-07T22:58:20.045Z,5.50
2023-04-07T23:01:23.605Z,5.54
2023-04-07T23:04:27.319Z,5.56
2023-04-07T23:07:32.393Z,5.52
2023-04-07T23:10:36.249Z,5.50
2023-04-07T23:13:39.697Z,5.56
2023-04-07T23:16:43.380Z,5.59
2023-04-07T23:19:47.083Z,5.54
2023-04-07T23:22:52.023Z,5.53
2023-04-07T23:25:55.746Z,5.63
2023-04-07T23:28:59.285Z,5.63
2023-04-07T23:32:03.144Z,5.54
2023-04-07T23:35:07.699Z,5.55
2023-04-07T23:38:12.605Z,5.55
2023-04-07T23:41:16.369Z,5.44
2023-04-07T23:44:19.924Z,5.54
2023-04-07T23:47:23.522Z,5.44
2023-04-07T23:50:27.915Z,5.51
2023-04-07T23:53:32.824Z,5.44
2023-04-07T23:56:36.740Z,5.56
2023-04-07T23:59:40.292Z,5.51
